sensor_id;sensor_type;location;lat;lon;timestamp;pressure;altitude;pressure_sealevel;temperature;humidity
62122;BME280;48108;47.532;19.084;2023-09-12T03:47:57;100220.75;;;16.87;100.00
62122;BME280;48108;47.532;19.084;2023-09-12T03:51:00;100215.25;;;16.93;100.00
62122;BME280;48108;47.532;19.084;2023-09-12T03:54:04;100213.16;;;16.95;100.00
62122;BME280;48108;47.532;19.084;2023-09-12T03:57:07;100212.12;;;16.96;100.00
62122;BME280;48108;47.532;19.084;2023-09-12T04:00:10;100207.09;;;16.93;100.00
62122;BME280;48108;47.532;19.084;2023-09-12T04:03:14;100213.16;;;16.95;100.00
62122;BME280;48108;47.532;19.084;2023-09-12T04:06:19;100206.94;;;16.88;100.00
62122;BME280;48108;47.532;19.084;2023-09-12T04:09:22;100207.41;;;16.85;100.00
62122;BME280;48108;47.532;19.084;2023-09-12T04:12:25;100220.22;;;16.78;100.00
62122;BME280;48108;47.532;19.084;2023-09-12T04:15:28;100217.28;;;16.80;100.00
62122;BME280;48108;47.532;19.084;2023-09-12T04:18:31;100217.28;;;16.73;100.00
62122;BME280;48108;47.532;19.084;2023-09-12T04:21:34;100220.84;;;16.73;100.00
62122;BME280;48108;47.532;19.084;2023-09-12T04:24:37;100219.38;;;16.77;100.00
62122;BME280;48108;47.532;19.084;2023-09-12T04:27:41;100223.53;;;16.80;100.00
62122;BME280;48108;47.532;19.084;2023-09-12T04:30:44;100225.88;;;16.76;100.00
62122;BME280;48108;47.532;19.084;2023-09-12T04:33:51;100229.44;;;16.77;100.00
62122;BME280;48108;47.532;19.084;2023-09-12T04:36:54;100225.38;;;16.86;100.00
62122;BME280;48108;47.532;19.084;2023-09-12T04:39:58;100231.88;;;16.85;100.00
62122;BME280;48108;47.532;19.084;2023-09-12T04:43:04;100228.53;;;16.83;100.00
62122;BME280;48108;47.532;19.084;2023-09-12T04:46:06;100225.72;;;16.96;100.00
62122;BME280;48108;47.532;19.084;2023-09-12T04:49:09;100231.56;;;16.93;100.00
62122;BME280;48108;47.532;19.084;2023-09-12T04:52:12;100238.62;;;17.01;100.00
62122;BME280;48108;47.532;19.084;2023-09-12T04:55:15;100237.50;;;17.09;100.00
62122;BME280;48108;47.532;19.084;2023-09-12T04:58:18;100232.22;;;17.14;100.00
62122;BME280;48108;47.532;19.084;2023-09-12T05:01:21;100234.06;;;17.20;100.00
62122;BME280;48108;47.532;19.084;2023-09-12T05:04:24;100235.44;;;17.29;100.00
62122;BME280;48108;47.532;19.084;2023-09-12T05:07:27;100252.94;;;17.33;100.00
62122;BME280;48108;47.532;19.084;2023-09-12T05:10:30;100245.31;;;17.42;100.00
62122;BME280;48108;47.532;19.084;2023-09-12T05:13:33;100247.13;;;17.48;100.00
62122;BME280;48108;47.532;19.084;2023-09-12T05:16:36;100245.00;;;17.68;100.00
62122;BME280;48108;47.532;19.084;2023-09-12T05:19:40;100247.91;;;17.74;100.00
62122;BME280;48108;47.532;19.084;2023-09-12T05:22:42;100249.72;;;17.80;100.00
62122;BME280;48108;47.532;19.084;2023-09-12T05:25:46;100243.84;;;17.83;100.00
62122;BME280;48108;47.532;19.084;2023-09-12T05:28:51;100244.34;;;17.92;100.00
62122;BME280;48108;47.532;19.084;2023-09-12T05:31:55;100241.06;;;18.01;100.00
62122;BME280;48108;47.532;19.084;2023-09-12T05:34:58;100247.84;;;18.10;100.00
62122;BME280;48108;47.532;19.084;2023-09-12T05:38:21;100256.09;;;18.22;100.00
62122;BME280;48108;47.532;19.084;2023-09-12T05:41:25;100255.06;;;18.35;100.00
62122;BME280;48108;47.532;19.084;2023-09-12T05:44:28;100257.50;;;18.55;100.00
62122;BME280;48108;47.532;19.084;2023-09-12T05:47:31;100257.75;;;18.65;100.00
62122;BME280;48108;47.532;19.084;2023-09-12T05:50:36;100254.97;;;18.84;100.00
62122;BME280;48108;47.532;19.084;2023-09-12T05:53:39;100267.91;;;18.88;100.00
62122;BME280;48108;47.532;19.084;2023-09-12T05:56:42;100260.56;;;19.00;100.00
62122;BME280;48108;47.532;19.084;2023-09-12T05:59:45;100261.88;;;19.10;100.00
62122;BME280;48108;47.532;19.084;2023-09-12T06:02:48;100266.75;;;19.19;100.00
62122;BME280;48108;47.532;19.084;2023-09-12T06:05:52;100264.13;;;19.24;100.00
62122;BME280;48108;47.532;19.084;2023-09-12T06:08:54;100260.00;;;19.34;100.00
62122;BME280;48108;47.532;19.084;2023-09-12T06:11:58;100267.44;;;19.50;100.00
62122;BME280;48108;47.532;19.084;2023-09-12T06:15:02;100261.72;;;19.63;100.00
62122;BME280;48108;47.532;19.084;2023-09-12T06:18:07;100262.91;;;19.79;100.00
62122;BME280;48108;47.532;19.084;2023-09-12T06:21:10;100265.84;;;19.89;100.00
62122;BME280;48108;47.532;19.084;2023-09-12T06:24:15;100269.25;;;19.97;100.00
62122;BME280;48108;47.532;19.084;2023-09-12T06:27:18;100270.19;;;20.02;100.00
62122;BME280;48108;47.532;19.084;2023-09-12T06:30:22;100268.47;;;20.25;100.00
62122;BME280;48108;47.532;19.084;2023-09-12T06:33:25;100270.44;;;20.29;100.00
62122;BME280;48108;47.532;19.084;2023-09-12T06:36:29;100279.53;;;20.47;100.00
62122;BME280;48108;47.532;19.084;2023-09-12T06:39:32;100271.88;;;20.60;100.00
62122;BME280;48108;47.532;19.084;2023-09-12T06:42:36;100266.75;;;20.81;100.00
62122;BME280;48108;47.532;19.084;2023-09-12T06:45:41;100275.53;;;21.00;99.29
62122;BME280;48108;47.532;19.084;2023-09-12T06:48:45;100276.28;;;21.12;97.83
62122;BME280;48108;47.532;19.084;2023-09-12T06:51:48;100276.75;;;21.26;97.21
62122;BME280;48108;47.532;19.084;2023-09-12T06:54:53;100270.87;;;21.51;95.19
62122;BME280;48108;47.532;19.084;2023-09-12T06:57:55;100277.87;;;21.64;94.43
62122;BME280;48108;47.532;19.084;2023-09-12T07:01:06;100275.59;;;21.78;94.38
62122;BME280;48108;47.532;19.084;2023-09-12T07:04:09;100272.53;;;21.96;93.43
62122;BME280;48108;47.532;19.084;2023-09-12T07:07:13;100273.56;;;22.12;92.00
62122;BME280;48108;47.532;19.084;2023-09-12T07:10:16;100280.13;;;22.33;91.49
62122;BME280;48108;47.532;19.084;2023-09-12T07:13:27;100273.31;;;22.40;92.15
62122;BME280;48108;47.532;19.084;2023-09-12T07:16:31;100287.22;;;22.56;89.63
62122;BME280;48108;47.532;19.084;2023-09-12T07:19:34;100281.28;;;22.69;88.09
62122;BME280;48108;47.532;19.084;2023-09-12T07:22:38;100275.44;;;22.87;85.34
62122;BME280;48108;47.532;19.084;2023-09-12T07:25:42;100274.63;;;22.92;83.92
62122;BME280;48108;47.532;19.084;2023-09-12T07:28:45;100280.31;;;23.13;84.78
62122;BME280;48108;47.532;19.084;2023-09-12T07:31:52;100288.44;;;23.35;83.29
62122;BME280;48108;47.532;19.084;2023-09-12T07:34:55;100283.28;;;23.43;80.34
62122;BME280;48108;47.532;19.084;2023-09-12T07:37:59;100295.09;;;23.44;79.58
62122;BME280;48108;47.532;19.084;2023-09-12T07:41:02;100283.59;;;23.57;79.93
62122;BME280;48108;47.532;19.084;2023-09-12T07:44:06;100283.50;;;23.79;81.39
62122;BME280;48108;47.532;19.084;2023-09-12T07:47:10;100284.87;;;23.82;81.17
62122;BME280;48108;47.532;19.084;2023-09-12T07:50:13;100282.97;;;23.92;78.51
62122;BME280;48108;47.532;19.084;2023-09-12T07:53:16;100269.84;;;24.05;78.48
62122;BME280;48108;47.532;19.084;2023-09-12T07:56:20;100289.97;;;24.20;78.59
62122;BME280;48108;47.532;19.084;2023-09-12T07:59:22;100283.66;;;24.30;76.14
62122;BME280;48108;47.532;19.084;2023-09-12T08:02:26;100279.28;;;24.39;76.61
62122;BME280;48108;47.532;19.084;2023-09-12T08:05:29;100273.31;;;24.68;76.03
62122;BME280;48108;47.532;19.084;2023-09-12T08:08:32;100276.88;;;24.74;76.19
62122;BME280;48108;47.532;19.084;2023-09-12T08:11:36;100270.81;;;24.92;74.79
62122;BME280;48108;47.532;19.084;2023-09-12T08:14:38;100265.31;;;24.97;75.37
62122;BME280;48108;47.532;19.084;2023-09-12T08:17:41;100269.47;;;25.20;74.61
62122;BME280;48108;47.532;19.084;2023-09-12T08:20:44;100264.78;;;25.36;73.56
62122;BME280;48108;47.532;19.084;2023-09-12T08:23:48;100262.50;;;25.53;71.16
62122;BME280;48108;47.532;19.084;2023-09-12T08:26:50;100265.22;;;25.64;70.87
62122;BME280;48108;47.532;19.084;2023-09-12T08:29:53;100272.62;;;25.84;69.85
62122;BME280;48108;47.532;19.084;2023-09-12T08:32:56;100270.06;;;26.02;68.37
62122;BME280;48108;47.532;19.084;2023-09-12T08:36:00;100263.87;;;26.26;66.32
62122;BME280;48108;47.532;19.084;2023-09-12T08:39:03;100269.09;;;26.33;67.61
62122;BME280;48108;47.532;19.084;2023-09-12T08:42:11;100257.41;;;26.41;67.12
62122;BME280;48108;47.532;19.084;2023-09-12T08:45:17;100261.78;;;26.57;67.71
62122;BME280;48108;47.532;19.084;2023-09-12T08:48:21;100263.69;;;26.91;66.78
62122;BME280;48108;47.532;19.084;2023-09-12T08:51:26;100264.31;;;27.17;63.82
62122;BME280;48108;47.532;19.084;2023-09-12T08:54:30;100265.19;;;27.42;63.16
62122;BME280;48108;47.532;19.084;2023-09-12T08:57:36;100250.97;;;27.53;60.42
62122;BME280;48108;47.532;19.084;2023-09-12T09:00:41;100252.78;;;27.39;60.84
62122;BME280;48108;47.532;19.084;2023-09-12T09:03:44;100252.19;;;27.66;58.34
62122;BME280;48108;47.532;19.084;2023-09-12T09:06:49;100253.13;;;27.56;58.07
62122;BME280;48108;47.532;19.084;2023-09-12T09:09:52;100248.75;;;27.79;58.44
62122;BME280;48108;47.532;19.084;2023-09-12T09:12:56;100254.78;;;28.06;57.57
62122;BME280;48108;47.532;19.084;2023-09-12T09:16:16;100256.06;;;28.32;56.63
62122;BME280;48108;47.532;19.084;2023-09-12T09:19:21;100253.50;;;28.55;55.35
62122;BME280;48108;47.532;19.084;2023-09-12T09:22:24;100245.72;;;28.76;56.47
62122;BME280;48108;47.532;19.084;2023-09-12T09:25:27;100249.94;;;29.06;52.21
62122;BME280;48108;47.532;19.084;2023-09-12T09:28:30;100247.97;;;29.06;49.36
62122;BME280;48108;47.532;19.084;2023-09-12T09:31:34;100247.37;;;29.09;49.07
62122;BME280;48108;47.532;19.084;2023-09-12T09:34:39;100239.88;;;29.10;49.52
62122;BME280;48108;47.532;19.084;2023-09-12T09:37:45;100247.28;;;29.14;49.50
62122;BME280;48108;47.532;19.084;2023-09-12T09:40:48;100246.34;;;29.19;48.55
62122;BME280;48108;47.532;19.084;2023-09-12T09:43:51;100245.56;;;29.32;47.95
62122;BME280;48108;47.532;19.084;2023-09-12T09:46:59;100244.22;;;29.44;47.41
62122;BME280;48108;47.532;19.084;2023-09-12T09:50:14;100243.72;;;29.55;45.14
62122;BME280;48108;47.532;19.084;2023-09-12T09:53:17;100242.53;;;29.75;44.59
62122;BME280;48108;47.532;19.084;2023-09-12T09:56:20;100243.03;;;29.64;44.43
62122;BME280;48108;47.532;19.084;2023-09-12T09:59:24;100235.19;;;29.79;42.43
62122;BME280;48108;47.532;19.084;2023-09-12T10:02:28;100243.00;;;29.77;43.10
62122;BME280;48108;47.532;19.084;2023-09-12T10:05:32;100233.25;;;29.94;41.60
62122;BME280;48108;47.532;19.084;2023-09-12T10:08:35;100240.31;;;30.00;42.18
62122;BME280;48108;47.532;19.084;2023-09-12T10:11:42;100233.50;;;30.20;43.31
62122;BME280;48108;47.532;19.084;2023-09-12T10:14:46;100230.16;;;30.45;40.65
62122;BME280;48108;47.532;19.084;2023-09-12T10:17:57;100230.16;;;30.45;41.06
62122;BME280;48108;47.532;19.084;2023-09-12T10:21:05;100222.94;;;30.67;40.03
62122;BME280;48108;47.532;19.084;2023-09-12T10:24:12;100233.44;;;30.70;38.30
62122;BME280;48108;47.532;19.084;2023-09-12T10:27:15;100225.41;;;30.91;38.66
62122;BME280;48108;47.532;19.084;2023-09-12T10:30:21;100218.28;;;30.99;38.29
62122;BME280;48108;47.532;19.084;2023-09-12T10:33:24;100227.53;;;31.16;36.57
62122;BME280;48108;47.532;19.084;2023-09-12T10:36:29;100217.84;;;31.36;35.87
62122;BME280;48108;47.532;19.084;2023-09-12T10:39:34;100213.75;;;31.43;36.09
62122;BME280;48108;47.532;19.084;2023-09-12T10:42:39;100207.16;;;31.87;35.95
62122;BME280;48108;47.532;19.084;2023-09-12T10:45:43;100206.72;;;32.02;35.36
62122;BME280;48108;47.532;19.084;2023-09-12T10:48:47;100208.03;;;32.22;34.88
62122;BME280;48108;47.532;19.084;2023-09-12T10:51:51;100201.66;;;32.65;34.62
62122;BME280;48108;47.532;19.084;2023-09-12T10:54:55;100204.44;;;32.65;34.36
62122;BME280;48108;47.532;19.084;2023-09-12T10:58:04;100209.34;;;32.77;34.26
62122;BME280;48108;47.532;19.084;2023-09-12T11:01:26;100206.13;;;33.13;33.65
62122;BME280;48108;47.532;19.084;2023-09-12T11:04:30;100204.62;;;33.25;33.25
62122;BME280;48108;47.532;19.084;2023-09-12T11:10:38;100206.16;;;33.52;32.54
62122;BME280;48108;47.532;19.084;2023-09-12T11:13:43;100203.03;;;33.83;30.95
62122;BME280;48108;47.532;19.084;2023-09-12T11:20:12;100192.00;;;34.70;29.78
62122;BME280;48108;47.532;19.084;2023-09-12T11:23:16;100184.09;;;35.67;28.89
62122;BME280;48108;47.532;19.084;2023-09-12T11:26:19;100181.12;;;35.88;28.18
62122;BME280;48108;47.532;19.084;2023-09-12T11:29:35;100179.41;;;36.24;27.01
62122;BME280;48108;47.532;19.084;2023-09-12T11:32:39;100170.84;;;36.89;26.80
62122;BME280;48108;47.532;19.084;2023-09-12T11:35:42;100181.34;;;37.23;25.59
62122;BME280;48108;47.532;19.084;2023-09-12T11:38:51;100177.09;;;37.45;24.77
62122;BME280;48108;47.532;19.084;2023-09-12T11:41:56;100166.37;;;38.02;23.93
62122;BME280;48108;47.532;19.084;2023-09-12T11:45:00;100163.75;;;38.91;23.51
62122;BME280;48108;47.532;19.084;2023-09-12T11:48:03;100166.84;;;39.81;22.59
62122;BME280;48108;47.532;19.084;2023-09-12T11:51:07;100153.19;;;41.36;21.33
62122;BME280;48108;47.532;19.084;2023-09-12T11:54:10;100156.28;;;41.72;20.25
62122;BME280;48108;47.532;19.084;2023-09-12T11:57:14;100152.34;;;41.91;21.04
62122;BME280;48108;47.532;19.084;2023-09-12T12:00:18;100149.66;;;42.23;19.46
62122;BME280;48108;47.532;19.084;2023-09-12T12:03:27;100151.44;;;42.82;19.00
62122;BME280;48108;47.532;19.084;2023-09-12T12:06:30;100153.88;;;43.44;18.27
62122;BME280;48108;47.532;19.084;2023-09-12T12:09:34;100154.22;;;43.82;18.59
62122;BME280;48108;47.532;19.084;2023-09-12T12:12:37;100153.72;;;44.08;17.27
62122;BME280;48108;47.532;19.084;2023-09-12T12:15:40;100138.16;;;45.01;16.51
62122;BME280;48108;47.532;19.084;2023-09-12T12:18:43;100142.16;;;43.35;18.21
62122;BME280;48108;47.532;19.084;2023-09-12T12:21:47;100139.25;;;44.62;16.76
62122;BME280;48108;47.532;19.084;2023-09-12T12:24:50;100137.59;;;44.68;17.23
62122;BME280;48108;47.532;19.084;2023-09-12T12:27:55;100127.31;;;45.37;16.64
62122;BME280;48108;47.532;19.084;2023-09-12T12:30:59;100131.41;;;46.63;16.21
62122;BME280;48108;47.532;19.084;2023-09-12T12:34:02;100127.53;;;47.03;14.96
62122;BME280;48108;47.532;19.084;2023-09-12T12:37:30;100123.78;;;44.74;16.00
62122;BME280;48108;47.532;19.084;2023-09-12T12:40:38;100123.62;;;45.37;16.01
62122;BME280;48108;47.532;19.084;2023-09-12T12:43:51;100122.50;;;46.61;15.37
62122;BME280;48108;47.532;19.084;2023-09-12T12:46:54;100110.09;;;46.74;14.81
62122;BME280;48108;47.532;19.084;2023-09-12T12:49:57;100110.34;;;47.54;14.52
62122;BME280;48108;47.532;19.084;2023-09-12T12:53:00;100106.13;;;47.15;14.22
62122;BME280;48108;47.532;19.084;2023-09-12T12:56:03;100104.31;;;46.24;14.82
62122;BME280;48108;47.532;19.084;2023-09-12T12:59:07;100108.16;;;46.10;15.02
62122;BME280;48108;47.532;19.084;2023-09-12T13:02:11;100099.41;;;45.63;15.24
62122;BME280;48108;47.532;19.084;2023-09-12T13:08:27;100098.53;;;47.09;15.04
62122;BME280;48108;47.532;19.084;2023-09-12T13:11:31;100094.31;;;47.40;14.14
62122;BME280;48108;47.532;19.084;2023-09-12T13:14:37;100101.75;;;47.11;14.22
62122;BME280;48108;47.532;19.084;2023-09-12T13:17:41;100102.53;;;46.37;14.36
62122;BME280;48108;47.532;19.084;2023-09-12T13:20:43;100098.69;;;46.20;14.54
62122;BME280;48108;47.532;19.084;2023-09-12T13:23:46;100098.44;;;46.38;14.76
62122;BME280;48108;47.532;19.084;2023-09-12T13:26:51;100093.81;;;46.98;14.12
62122;BME280;48108;47.532;19.084;2023-09-12T13:29:54;100092.38;;;46.63;14.67
62122;BME280;48108;47.532;19.084;2023-09-12T13:33:01;100083.66;;;46.47;14.88
62122;BME280;48108;47.532;19.084;2023-09-12T13:36:07;100092.38;;;47.77;14.37
62122;BME280;48108;47.532;19.084;2023-09-12T13:39:10;100080.81;;;45.89;14.95
62122;BME280;48108;47.532;19.084;2023-09-12T13:42:16;100083.69;;;45.51;14.99
62122;BME280;48108;47.532;19.084;2023-09-12T13:45:23;100086.50;;;46.74;14.63
62122;BME280;48108;47.532;19.084;2023-09-12T13:48:26;100078.22;;;46.02;15.12
62122;BME280;48108;47.532;19.084;2023-09-12T13:51:29;100083.97;;;46.25;14.59
62122;BME280;48108;47.532;19.084;2023-09-12T13:54:33;100086.72;;;45.33;15.37
62122;BME280;48108;47.532;19.084;2023-09-12T13:57:36;100072.31;;;44.65;15.81
62122;BME280;48108;47.532;19.084;2023-09-12T14:00:52;100084.81;;;45.23;15.66
62122;BME280;48108;47.532;19.084;2023-09-12T14:03:56;100072.91;;;44.90;15.50
62122;BME280;48108;47.532;19.084;2023-09-12T14:07:01;100085.91;;;43.05;17.77
62122;BME280;48108;47.532;19.084;2023-09-12T14:10:09;100080.31;;;41.60;18.62
62122;BME280;48108;47.532;19.084;2023-09-12T14:13:21;100082.19;;;39.48;20.08
62122;BME280;48108;47.532;19.084;2023-09-12T14:16:26;100082.91;;;37.87;21.62
62122;BME280;48108;47.532;19.084;2023-09-12T14:19:28;100076.34;;;36.77;22.63
62122;BME280;48108;47.532;19.084;2023-09-12T14:22:32;100069.66;;;36.22;23.95
62122;BME280;48108;47.532;19.084;2023-09-12T14:25:38;100079.22;;;35.40;24.03
62122;BME280;48108;47.532;19.084;2023-09-12T14:28:41;100082.00;;;34.91;24.74
62122;BME280;48108;47.532;19.084;2023-09-12T14:31:45;100076.69;;;34.40;25.15
62122;BME280;48108;47.532;19.084;2023-09-12T14:34:53;100078.91;;;33.93;27.17
62122;BME280;48108;47.532;19.084;2023-09-12T14:37:56;100083.66;;;33.50;27.93
62122;BME280;48108;47.532;19.084;2023-09-12T14:41:01;100080.59;;;33.13;27.66
62122;BME280;48108;47.532;19.084;2023-09-12T14:44:05;100080.28;;;32.77;28.14
62122;BME280;48108;47.532;19.084;2023-09-12T14:47:08;100075.53;;;32.68;28.02
62122;BME280;48108;47.532;19.084;2023-09-12T14:50:11;100069.22;;;32.33;28.43
62122;BME280;48108;47.532;19.084;2023-09-12T14:53:15;100072.81;;;32.34;27.88
62122;BME280;48108;47.532;19.084;2023-09-12T14:56:18;100074.34;;;32.05;28.44
62122;BME280;48108;47.532;19.084;2023-09-12T14:59:21;100077.94;;;31.79;28.87
62122;BME280;48108;47.532;19.084;2023-09-12T15:02:25;100076.44;;;31.47;29.34
62122;BME280;48108;47.532;19.084;2023-09-12T15:05:34;100079.53;;;31.37;30.00
62122;BME280;48108;47.532;19.084;2023-09-12T15:08:37;100080.28;;;31.20;30.08
62122;BME280;48108;47.532;19.084;2023-09-12T15:11:40;100079.97;;;31.22;31.27
62122;BME280;48108;47.532;19.084;2023-09-12T15:14:43;100080.25;;;31.11;30.47
62122;BME280;48108;47.532;19.084;2023-09-12T15:17:46;100072.59;;;31.17;30.58
62122;BME280;48108;47.532;19.084;2023-09-12T15:20:51;100077.78;;;31.01;31.67
62122;BME280;48108;47.532;19.084;2023-09-12T15:23:55;100069.59;;;30.96;31.85
62122;BME280;48108;47.532;19.084;2023-09-12T15:26:59;100082.13;;;30.85;31.23
62122;BME280;48108;47.532;19.084;2023-09-12T15:30:02;100087.00;;;30.79;31.70
62122;BME280;48108;47.532;19.084;2023-09-12T15:33:05;100078.84;;;30.83;31.37
62122;BME280;48108;47.532;19.084;2023-09-12T15:36:08;100071.66;;;30.82;32.08
62122;BME280;48108;47.532;19.084;2023-09-12T15:39:12;100085.19;;;30.75;31.77
62122;BME280;48108;47.532;19.084;2023-09-12T15:42:16;100075.19;;;30.73;31.87
62122;BME280;48108;47.532;19.084;2023-09-12T15:45:36;100076.94;;;30.61;33.15
62122;BME280;48108;47.532;19.084;2023-09-12T15:48:53;100078.69;;;30.57;31.95
62122;BME280;48108;47.532;19.084;2023-09-12T15:51:57;100069.72;;;30.51;32.83
62122;BME280;48108;47.532;19.084;2023-09-12T15:55:00;100079.44;;;30.17;35.14
62122;BME280;48108;47.532;19.084;2023-09-12T15:58:03;100069.53;;;30.02;34.98
62122;BME280;48108;47.532;19.084;2023-09-12T16:01:07;100072.34;;;29.89;36.29
62122;BME280;48108;47.532;19.084;2023-09-12T16:04:10;100069.31;;;29.76;34.67
62122;BME280;48108;47.532;19.084;2023-09-12T16:07:13;100072.13;;;29.63;34.36
62122;BME280;48108;47.532;19.084;2023-09-12T16:10:16;100069.12;;;29.59;34.68
62122;BME280;48108;47.532;19.084;2023-09-12T16:13:19;100057.53;;;29.57;34.88
62122;BME280;48108;47.532;19.084;2023-09-12T16:16:22;100062.31;;;29.43;35.11
62122;BME280;48108;47.532;19.084;2023-09-12T16:19:25;100061.50;;;29.28;36.32
